Time;durP1;ratioP1;P1;durP2;ratioP2;P2;SDS_P1;SDS_P2;PMS_P1;PMS_P2;Temp;Humidity;BMP_temperature;BMP_pressure;BME280_temperature;BME280_humidity;BME280_pressure;Samples;Min_cycle;Max_cycle;Signal;HPM_P1;HPM_P2
2022/04/09 00:00:59;;;;;;;9.57;2.17;;;4.90;90.10;;;;;;5094465;28;20221;-77
2022/04/09 00:03:25;;;;;;;8.00;2.80;;;5.00;99.90;;;;;;5076321;28;20688;-77
2022/04/09 00:05:51;;;;;;;9.43;2.20;;;5.00;99.90;;;;;;5094410;28;20598;-75
2022/04/09 00:08:16;;;;;;;7.93;2.40;;;5.00;99.90;;;;;;5094378;28;20234;-77
2022/04/09 00:10:42;;;;;;;6.67;1.90;;;5.00;99.90;;;;;;5075957;28;20195;-77
2022/04/09 00:13:07;;;;;;;5.70;2.00;;;5.00;99.90;;;;;;5094494;28;20600;-77
2022/04/09 00:15:33;;;;;;;12.03;2.37;;;5.00;99.90;;;;;;5094791;28;20655;-77
2022/04/09 00:17:59;;;;;;;8.90;2.47;;;5.00;99.90;;;;;;5076146;28;20189;-77
2022/04/09 00:20:24;;;;;;;12.17;2.57;;;5.00;99.90;;;;;;5094160;28;20198;-77
2022/04/09 00:22:50;;;;;;;11.93;2.77;;;5.00;99.90;;;;;;5094183;28;20174;-77
2022/04/09 00:25:21;;;;;;;8.73;2.03;;;5.00;99.90;;;;;;5075975;28;20178;-77
2022/04/09 00:27:47;;;;;;;11.83;2.63;;;5.00;99.90;;;;;;5094343;28;20162;-77
2022/04/09 00:30:12;;;;;;;8.63;2.27;;;5.00;99.90;;;;;;5094235;28;20344;-77
2022/04/09 00:32:38;;;;;;;10.63;3.37;;;5.00;99.90;;;;;;5094610;28;20198;-77
2022/04/09 00:35:06;;;;;;;14.77;4.10;;;5.00;99.90;;;;;;5095865;28;20179;-77
2022/04/09 00:37:32;;;;;;;15.80;4.50;;;5.10;99.90;;;;;;5095323;28;20178;-77
2022/04/09 00:39:58;;;;;;;19.73;5.50;;;5.10;99.90;;;;;;5077698;28;20233;-77
2022/04/09 00:42:23;;;;;;;16.53;5.60;;;5.10;99.90;;;;;;5095023;28;20684;-77
2022/04/09 00:44:50;;;;;;;12.80;4.60;;;5.10;99.90;;;;;;5094153;28;20170;-77
2022/04/09 00:47:16;;;;;;;18.07;4.67;;;5.00;99.90;;;;;;5078441;28;20193;-77
2022/04/09 00:49:41;;;;;;;12.40;4.30;;;5.00;99.90;;;;;;5095536;28;20175;-77
2022/04/09 00:52:09;;;;;;;21.97;5.60;;;5.10;99.90;;;;;;5094815;28;20715;-76
2022/04/09 00:54:42;;;;;;;15.13;5.23;;;5.10;99.90;;;;;;5093533;28;20179;-77
2022/04/09 00:57:09;;;;;;;22.17;6.70;;;5.10;99.90;;;;;;5093516;28;20675;-77
2022/04/09 00:59:37;;;;;;;17.33;5.20;;;5.10;99.90;;;;;;5075074;28;20232;-77
2022/04/09 01:02:03;;;;;;;16.07;5.27;;;5.00;99.90;;;;;;5075187;28;20202;-77
2022/04/09 01:04:31;;;;;;;14.30;5.63;;;5.00;99.90;;;;;;5093472;28;20633;-77
2022/04/09 01:06:59;;;;;;;19.57;5.90;;;5.00;99.90;;;;;;5075250;28;20178;-77
2022/04/09 01:09:24;;;;;;;19.47;7.40;;;5.00;99.90;;;;;;5093545;28;20544;-77
2022/04/09 01:11:51;;;;;;;13.20;6.27;;;5.00;99.90;;;;;;5093330;28;20281;-77
2022/04/09 01:14:17;;;;;;;16.40;5.40;;;5.00;99.90;;;;;;5075225;28;20607;-77
2022/04/09 01:16:44;;;;;;;15.10;3.97;;;5.00;99.90;;;;;;5075072;28;20586;-75
2022/04/09 01:19:09;;;;;;;8.67;3.70;;;5.00;99.90;;;;;;5093091;28;20216;-76
2022/04/09 01:21:38;;;;;;;12.90;4.17;;;5.00;99.90;;;;;;5092852;28;20209;-77
2022/04/09 01:24:04;;;;;;;17.80;4.40;;;5.00;99.90;;;;;;5074891;28;20182;-76
2022/04/09 01:26:30;;;;;;;19.30;5.43;;;5.00;99.90;;;;;;5074891;28;20284;-77
2022/04/09 01:28:55;;;;;;;18.00;5.73;;;5.00;99.90;;;;;;5074853;28;20237;-77
2022/04/09 01:31:21;;;;;;;20.60;7.80;;;5.00;99.90;;;;;;5092804;28;20221;-77
2022/04/09 01:33:47;;;;;;;26.07;7.27;;;4.90;99.90;;;;;;5093127;28;20190;-78
2022/04/09 01:36:14;;;;;;;17.90;6.63;;;4.90;99.90;;;;;;5074973;28;20201;-76
2022/04/09 01:38:40;;;;;;;17.57;6.40;;;4.90;99.90;;;;;;5093550;28;20194;-77
2022/04/09 01:41:06;;;;;;;16.57;6.27;;;4.90;99.90;;;;;;5092923;28;20563;-77
2022/04/09 01:43:31;;;;;;;20.60;5.03;;;4.90;99.90;;;;;;5092790;28;20201;-77
2022/04/09 01:45:57;;;;;;;13.80;4.70;;;4.90;99.90;;;;;;5074743;28;20183;-76
2022/04/09 01:48:23;;;;;;;15.90;4.47;;;4.80;99.90;;;;;;5075533;28;20190;-77
2022/04/09 01:50:48;;;;;;;13.63;4.10;;;4.80;99.90;;;;;;5092431;28;20650;-77
2022/04/09 01:53:14;;;;;;;16.50;4.77;;;4.80;99.90;;;;;;5094046;28;20167;-77
2022/04/09 01:55:40;;;;;;;19.90;5.63;;;4.70;99.90;;;;;;5096559;28;20174;-76
2022/04/09 01:58:06;;;;;;;18.00;3.53;;;4.70;99.90;;;;;;5078254;28;20189;-77
2022/04/09 02:00:31;;;;;;;11.53;3.37;;;4.60;99.90;;;;;;5096257;28;20261;-77
2022/04/09 02:02:57;;;;;;;11.50;2.90;;;4.60;99.90;;;;;;5078379;28;20186;-78
2022/04/09 02:05:24;;;;;;;16.27;3.03;;;4.60;99.90;;;;;;5078222;28;20186;-77
2022/04/09 02:07:50;;;;;;;26.63;4.40;;;4.50;99.90;;;;;;5078115;28;20178;-76
2022/04/09 02:10:16;;;;;;;14.80;3.03;;;4.50;99.90;;;;;;5096196;28;20206;-77
2022/04/09 02:12:43;;;;;;;13.77;2.60;;;4.50;99.90;;;;;;5095072;28;20272;-78
2022/04/09 02:15:11;;;;;;;16.13;3.53;;;4.40;99.90;;;;;;5078106;28;20182;-77
2022/04/09 02:17:38;;;;;;;15.53;3.47;;;4.40;99.90;;;;;;5096312;28;20221;-77
2022/04/09 02:20:06;;;;;;;11.63;3.07;;;4.40;99.90;;;;;;5096391;28;20688;-77
2022/04/09 02:22:39;;;;;;;10.57;2.80;;;4.40;99.90;;;;;;5096579;28;20194;-78
2022/04/09 02:25:06;;;;;;;11.53;3.07;;;4.40;99.90;;;;;;5096596;28;20197;-77
2022/04/09 02:27:32;;;;;;;11.37;2.93;;;4.40;99.90;;;;;;5095937;28;20205;-77
2022/04/09 02:29:57;;;;;;;11.40;2.73;;;4.40;99.90;;;;;;5096026;28;20182;-77
2022/04/09 02:32:24;;;;;;;13.10;3.40;;;4.40;99.90;;;;;;5095892;28;20200;-77
2022/04/09 02:34:52;;;;;;;7.57;2.80;;;4.30;99.90;;;;;;5096111;28;20265;-77
2022/04/09 02:37:17;;;;;;;18.40;3.50;;;4.30;99.90;;;;;;5096076;28;20237;-77
2022/04/09 02:39:43;;;;;;;14.53;2.80;;;4.30;99.90;;;;;;5095959;28;20225;-76
2022/04/09 02:42:10;;;;;;;13.10;2.60;;;4.40;99.90;;;;;;5077504;28;20577;-77
2022/04/09 02:44:36;;;;;;;13.70;3.00;;;4.40;99.90;;;;;;5095603;28;20175;-77
2022/04/09 02:47:01;;;;;;;15.27;3.23;;;4.30;99.90;;;;;;5077507;28;20332;-77
2022/04/09 02:49:27;;;;;;;14.47;4.07;;;4.30;99.90;;;;;;5095627;28;20271;-77
2022/04/09 02:51:52;;;;;;;11.53;3.90;;;4.30;99.90;;;;;;5077112;28;20237;-77
2022/04/09 02:54:18;;;;;;;19.27;3.57;;;4.30;99.90;;;;;;5077330;28;20193;-77
2022/04/09 02:56:44;;;;;;;20.27;3.67;;;4.30;99.90;;;;;;5078346;28;20673;-76
2022/04/09 02:59:13;;;;;;;14.57;3.43;;;4.20;99.90;;;;;;5077381;28;20216;-77
2022/04/09 03:01:40;;;;;;;11.07;2.73;;;4.20;99.90;;;;;;5095355;28;20198;-77
2022/04/09 03:04:06;;;;;;;14.77;3.13;;;4.20;99.90;;;;;;5094549;28;20170;-77
2022/04/09 03:06:32;;;;;;;12.53;3.40;;;4.20;99.90;;;;;;5094578;28;20181;-77
2022/04/09 03:08:58;;;;;;;18.63;4.10;;;4.20;99.90;;;;;;5095155;28;20174;-77
2022/04/09 03:11:24;;;;;;;13.50;3.00;;;4.20;99.90;;;;;;5094957;28;20202;-77
2022/04/09 03:13:49;;;;;;;13.07;3.73;;;4.20;99.90;;;;;;5094954;28;20243;-77
2022/04/09 03:16:15;;;;;;;17.80;3.10;;;4.20;99.90;;;;;;5076782;28;20268;-76
2022/04/09 03:18:40;;;;;;;13.43;3.27;;;4.20;99.90;;;;;;5094916;28;20190;-77
2022/04/09 03:21:06;;;;;;;15.90;3.87;;;4.20;99.90;;;;;;5094879;28;20202;-77
2022/04/09 03:23:31;;;;;;;8.30;2.80;;;4.20;99.90;;;;;;5076624;28;20186;-77
2022/04/09 03:25:57;;;;;;;11.70;3.00;;;4.20;99.90;;;;;;5094915;28;20179;-77
2022/04/09 03:28:23;;;;;;;13.50;3.10;;;4.30;99.90;;;;;;5076599;28;20187;-77
2022/04/09 03:30:48;;;;;;;15.53;3.93;;;4.30;99.90;;;;;;5076637;28;20210;-76
2022/04/09 03:33:14;;;;;;;11.27;3.50;;;4.20;99.90;;;;;;5094927;28;20174;-77
2022/04/09 03:35:40;;;;;;;12.17;3.47;;;4.20;99.90;;;;;;5094729;28;20178;-77
2022/04/09 03:38:06;;;;;;;11.73;2.70;;;4.30;99.90;;;;;;5094593;28;20182;-77
2022/04/09 03:40:31;;;;;;;12.60;3.70;;;4.30;99.90;;;;;;5076236;28;20727;-77
2022/04/09 03:42:57;;;;;;;12.20;3.60;;;4.30;99.90;;;;;;5076232;28;20190;-77
2022/04/09 03:45:22;;;;;;;15.90;3.80;;;4.30;99.90;;;;;;5076243;28;20186;-77
2022/04/09 03:47:48;;;;;;;17.23;3.37;;;4.40;99.90;;;;;;5076252;28;20174;-77
2022/04/09 03:50:14;;;;;;;16.80;3.97;;;4.40;99.90;;;;;;5094165;28;20174;-76
2022/04/09 03:52:40;;;;;;;18.03;3.77;;;4.40;99.90;;;;;;5075973;28;20205;-77
2022/04/09 03:55:07;;;;;;;24.67;7.00;;;4.50;99.90;;;;;;5094278;28;20604;-77
2022/04/09 03:57:32;;;;;;;19.27;6.93;;;4.50;99.90;;;;;;5075937;28;20182;-77
2022/04/09 03:59:58;;;;;;;27.93;8.27;;;4.50;99.90;;;;;;5075907;28;20213;-77
2022/04/09 04:02:24;;;;;;;23.20;6.37;;;4.50;99.90;;;;;;5094281;28;20190;-77
2022/04/09 04:04:49;;;;;;;16.77;4.47;;;4.50;99.90;;;;;;5094265;28;20170;-77
2022/04/09 04:07:20;;;;;;;18.47;4.40;;;4.60;99.90;;;;;;5094579;28;20171;-77
2022/04/09 04:09:46;;;;;;;12.13;3.37;;;4.60;99.90;;;;;;5093993;28;20201;-77
2022/04/09 04:12:11;;;;;;;8.43;3.07;;;4.60;99.90;;;;;;5093824;28;20670;-77
2022/04/09 04:14:37;;;;;;;15.63;3.70;;;4.60;99.90;;;;;;5075712;28;20645;-77
2022/04/09 04:17:03;;;;;;;17.33;3.00;;;4.60;99.90;;;;;;5075368;28;20186;-77
2022/04/09 04:19:28;;;;;;;18.87;3.10;;;4.60;99.90;;;;;;5075497;28;20236;-77
2022/04/09 04:21:54;;;;;;;18.70;3.57;;;4.60;99.90;;;;;;5075763;28;20202;-77
2022/04/09 04:24:19;;;;;;;9.27;2.53;;;4.50;99.90;;;;;;5094024;28;20218;-77
2022/04/09 04:26:45;;;;;;;16.67;2.97;;;4.50;99.90;;;;;;5075544;28;20556;-77
2022/04/09 04:29:10;;;;;;;16.47;3.17;;;4.50;99.90;;;;;;5093986;28;20167;-77
2022/04/09 04:31:36;;;;;;;18.30;3.70;;;4.50;99.90;;;;;;5093844;28;20218;-76
2022/04/09 04:34:01;;;;;;;20.20;3.43;;;4.50;99.90;;;;;;5075500;28;20661;-77
2022/04/09 04:36:27;;;;;;;12.77;2.90;;;4.50;99.90;;;;;;5093655;28;20172;-77
2022/04/09 04:38:52;;;;;;;10.07;2.80;;;4.50;99.90;;;;;;5093740;28;20214;-76
2022/04/09 04:41:18;;;;;;;15.87;3.07;;;4.50;99.90;;;;;;5075386;28;20285;-77
2022/04/09 04:43:48;;;;;;;15.73;3.00;;;4.50;99.90;;;;;;5093562;28;20261;-76
2022/04/09 04:46:13;;;;;;;11.00;3.33;;;4.50;99.90;;;;;;5093864;28;20159;-77
2022/04/09 04:48:39;;;;;;;12.53;3.43;;;4.50;99.90;;;;;;5093588;28;20528;-77
2022/04/09 04:51:04;;;;;;;10.97;2.87;;;4.50;99.90;;;;;;5093130;28;20256;-77
2022/04/09 04:53:30;;;;;;;11.87;3.20;;;4.50;99.90;;;;;;5075204;28;20178;-76
2022/04/09 04:55:56;;;;;;;12.30;3.10;;;4.50;99.90;;;;;;5091897;28;20178;-76
2022/04/09 04:58:21;;;;;;;16.03;3.30;;;4.50;99.90;;;;;;5093168;28;20189;-76
2022/04/09 05:00:47;;;;;;;18.23;3.00;;;4.50;99.90;;;;;;5074959;28;20210;-77
2022/04/09 05:03:12;;;;;;;14.57;2.93;;;4.60;99.90;;;;;;5074993;28;20179;-76
2022/04/09 05:05:38;;;;;;;14.93;2.97;;;4.60;99.90;;;;;;5075006;28;20265;-76
2022/04/09 05:08:04;;;;;;;13.23;2.73;;;4.60;99.90;;;;;;5075072;28;20684;-77
2022/04/09 05:10:29;;;;;;;8.87;2.63;;;4.60;99.90;;;;;;5093075;28;20548;-77
2022/04/09 05:12:55;;;;;;;10.93;2.70;;;4.60;99.90;;;;;;5093029;28;20273;-76
2022/04/09 05:15:21;;;;;;;11.30;2.40;;;4.60;99.90;;;;;;5093135;28;20171;-76
2022/04/09 05:17:46;;;;;;;10.73;2.57;;;4.70;99.90;;;;;;5074849;28;20185;-76
2022/04/09 05:20:15;;;;;;;17.97;3.63;;;4.70;99.90;;;;;;5093144;28;20237;-77
2022/04/09 05:22:43;;;;;;;16.67;3.40;;;4.80;99.90;;;;;;5092984;28;20661;-76
2022/04/09 05:25:13;;;;;;;15.60;2.93;;;4.80;99.90;;;;;;5093215;28;20177;-76
2022/04/09 05:27:39;;;;;;;12.07;2.63;;;4.80;99.90;;;;;;5092881;28;20261;-76
2022/04/09 05:30:05;;;;;;;11.60;2.67;;;4.80;99.90;;;;;;5078790;28;20214;-76
2022/04/09 05:32:31;;;;;;;8.80;2.70;;;4.90;99.90;;;;;;5096875;28;20202;-77
2022/04/09 05:34:57;;;;;;;10.83;2.67;;;4.90;12.10;;;;;;5078804;28;20186;-76
2022/04/09 05:37:22;;;;;;;14.03;3.00;;;4.90;66.60;;;;;;5096856;28;20175;-77
2022/04/09 05:39:48;;;;;;;17.50;3.90;;;4.80;64.50;;;;;;5078710;28;20213;-77
2022/04/09 05:42:14;;;;;;;11.97;3.10;;;4.80;99.90;;;;;;5078589;28;20615;-76
2022/04/09 05:44:39;;;;;;;12.57;2.80;;;4.80;99.90;;;;;;5078550;28;20550;-77
2022/04/09 05:47:05;;;;;;;11.47;3.10;;;4.80;99.90;;;;;;5096941;28;20179;-77
2022/04/09 05:49:31;;;;;;;15.33;3.37;;;4.80;99.90;;;;;;5097186;28;20186;-77
2022/04/09 05:51:57;;;;;;;13.53;3.10;;;4.80;99.90;;;;;;5096723;28;20222;-76
2022/04/09 05:54:24;;;;;;;9.27;3.00;;;4.70;99.90;;;;;;5096596;28;20217;-77
2022/04/09 05:56:49;;;;;;;13.57;3.13;;;4.60;99.90;;;;;;5096461;28;20178;-76
2022/04/09 05:59:15;;;;;;;11.00;3.13;;;4.70;99.90;;;;;;5078459;28;20206;-77
2022/04/09 06:01:40;;;;;;;13.47;3.47;;;4.70;99.90;;;;;;5078280;28;20292;-77
2022/04/09 06:04:06;;;;;;;18.83;3.70;;;4.70;99.90;;;;;;5096537;28;20193;-77
2022/04/09 06:06:32;;;;;;;16.97;3.43;;;4.60;99.90;;;;;;5078861;28;20256;-77
2022/04/09 06:08:57;;;;;;;20.53;4.33;;;4.70;99.90;;;;;;5078559;28;20186;-77
2022/04/09 06:11:24;;;;;;;11.53;3.47;;;4.70;99.90;;;;;;5078058;28;20633;-77
2022/04/09 06:13:50;;;;;;;11.20;3.13;;;4.80;99.90;;;;;;5096471;28;20201;-77
2022/04/09 06:16:16;;;;;;;17.90;3.17;;;4.80;99.90;;;;;;5078052;28;20213;-76
2022/04/09 06:18:42;;;;;;;10.20;3.20;;;4.80;99.90;;;;;;5096117;28;20178;-77
2022/04/09 06:21:08;;;;;;;11.60;3.17;;;4.80;99.90;;;;;;5078018;28;20739;-77
2022/04/09 06:23:35;;;;;;;20.80;3.63;;;4.90;99.90;;;;;;5077994;28;20561;-77
2022/04/09 06:26:01;;;;;;;9.87;2.80;;;4.90;99.90;;;;;;5096342;28;20182;-77
2022/04/09 06:28:26;;;;;;;14.27;3.33;;;5.00;99.90;;;;;;5078301;28;20181;-77
2022/04/09 06:30:52;;;;;;;11.37;3.13;;;5.00;99.90;;;;;;5096486;28;20225;-77
2022/04/09 06:33:18;;;;;;;10.67;3.40;;;5.00;99.90;;;;;;5096436;28;20174;-77
2022/04/09 06:35:44;;;;;;;13.63;2.70;;;5.00;99.90;;;;;;5078629;28;20205;-77
2022/04/09 06:38:10;;;;;;;19.13;3.57;;;5.10;99.90;;;;;;5097295;28;20650;-77
2022/04/09 06:40:35;;;;;;;15.07;3.20;;;5.00;99.90;;;;;;5078116;28;20214;-77
2022/04/09 06:43:01;;;;;;;13.33;3.40;;;5.10;99.90;;;;;;5096568;28;20175;-77
2022/04/09 06:45:26;;;;;;;19.53;3.37;;;5.20;99.90;;;;;;5095919;28;20253;-77
2022/04/09 06:47:52;;;;;;;15.83;3.23;;;5.20;99.90;;;;;;5096001;28;20249;-77
2022/04/09 06:50:17;;;;;;;10.73;3.20;;;5.30;36.20;;;;;;5095850;28;20184;-77
2022/04/09 06:52:44;;;;;;;13.03;3.27;;;5.30;94.30;;;;;;5077605;28;20292;-76
2022/04/09 06:55:10;;;;;;;11.37;3.57;;;5.30;1.00;;;;;;5077851;28;20186;-77
2022/04/09 06:57:38;;;;;;;14.47;3.37;;;5.40;83.60;;;;;;5095807;28;20170;-77
2022/04/09 07:00:06;;;;;;;12.40;3.47;;;5.40;1.00;;;;;;5094660;28;20206;-77
2022/04/09 07:02:32;;;;;;;14.63;3.57;;;5.40;1.00;;;;;;5078233;28;20202;-77
2022/04/09 07:04:57;;;;;;;9.60;3.33;;;5.50;1.00;;;;;;5077689;28;20182;-76
2022/04/09 07:07:25;;;;;;;13.23;3.00;;;5.50;1.00;;;;;;5095966;28;20178;-77
2022/04/09 07:09:54;;;;;;;15.33;3.40;;;5.60;99.90;;;;;;5096429;28;20182;-77
2022/04/09 07:12:19;;;;;;;9.73;2.80;;;5.70;99.90;;;;;;5096125;28;20205;-77
2022/04/09 07:14:45;;;;;;;9.73;2.70;;;5.80;1.00;;;;;;5095975;28;20178;-77
2022/04/09 07:17:11;;;;;;;9.20;2.70;;;5.80;99.90;;;;;;5096046;28;20175;-77
2022/04/09 07:19:38;;;;;;;15.33;2.80;;;5.80;99.90;;;;;;5095685;28;20198;-77
2022/04/09 07:22:04;;;;;;;8.63;2.70;;;5.80;53.60;;;;;;5095561;28;20681;-77
2022/04/09 07:24:30;;;;;;;15.50;3.30;;;5.90;99.90;;;;;;5095580;28;20178;-77
2022/04/09 07:26:55;;;;;;;12.37;2.70;;;5.90;99.90;;;;;;5096151;28;20185;-77
2022/04/09 07:29:21;;;;;;;9.50;2.90;;;6.00;99.90;;;;;;5077485;28;20178;-77
2022/04/09 07:31:47;;;;;;;10.33;2.90;;;6.00;99.90;;;;;;5077238;28;20708;-77
2022/04/09 07:34:12;;;;;;;11.80;2.70;;;6.10;62.20;;;;;;5095577;28;20201;-77
2022/04/09 07:36:38;;;;;;;10.87;2.83;;;6.20;99.90;;;;;;5095198;28;20588;-77
2022/04/09 07:39:05;;;;;;;11.90;2.77;;;6.20;1.00;;;;;;5077376;28;20726;-77
2022/04/09 07:41:31;;;;;;;11.77;3.10;;;6.30;99.90;;;;;;5095179;28;20665;-77
2022/04/09 07:43:57;;;;;;;14.60;3.60;;;6.20;1.00;;;;;;5076999;28;20193;-77
2022/04/09 07:46:22;;;;;;;8.43;2.70;;;6.20;1.00;;;;;;5076968;28;20282;-77
2022/04/09 07:48:48;;;;;;;11.47;3.13;;;6.20;1.00;;;;;;5095164;28;20313;-77
2022/04/09 07:51:14;;;;;;;8.23;2.90;;;6.30;99.90;;;;;;5094139;28;20263;-77
2022/04/09 07:53:40;;;;;;;13.50;3.57;;;6.50;1.00;;;;;;5095241;28;20170;-77
2022/04/09 07:56:05;;;;;;;11.23;2.60;;;6.50;99.90;;;;;;5077287;28;20713;-77
2022/04/09 07:58:31;;;;;;;15.23;3.00;;;6.50;99.90;;;;;;5095205;28;20258;-77
2022/04/09 08:00:56;;;;;;;15.67;3.53;;;6.50;1.00;;;;;;5095239;28;20210;-77
2022/04/09 08:03:22;;;;;;;16.33;3.37;;;6.70;65.80;;;;;;5095123;28;20175;-77
2022/04/09 08:05:47;;;;;;;12.40;3.80;;;6.70;5.70;;;;;;5077293;28;20196;-77
2022/04/09 08:08:13;;;;;;;15.63;3.70;;;6.90;99.90;;;;;;5095032;28;20597;-77
2022/04/09 08:10:39;;;;;;;21.53;6.17;;;7.00;1.00;;;;;;5095137;28;20194;-77
2022/04/09 08:13:05;;;;;;;17.23;4.80;;;7.10;97.10;;;;;;5076630;28;20557;-76
2022/04/09 08:15:31;;;;;;;16.47;4.40;;;7.10;1.00;;;;;;5095553;28;20226;-77
2022/04/09 08:17:58;;;;;;;15.73;4.90;;;7.10;1.00;;;;;;5076440;28;20182;-77
2022/04/09 08:20:24;;;;;;;13.03;3.23;;;7.20;1.00;;;;;;5095269;28;20198;-77
2022/04/09 08:22:50;;;;;;;15.90;3.60;;;7.30;81.70;;;;;;5077309;28;20186;-77
2022/04/09 08:25:16;;;;;;;13.77;3.33;;;7.40;1.00;;;;;;5095718;28;20182;-78
2022/04/09 08:27:43;;;;;;;8.27;2.40;;;7.50;1.00;;;;;;5076992;28;20185;-77
2022/04/09 08:30:10;;;;;;;10.30;2.43;;;7.50;99.90;;;;;;5076833;28;20209;-77
2022/04/09 08:32:36;;;;;;;7.57;2.87;;;7.50;1.00;;;;;;5076728;28;20585;-77
2022/04/09 08:35:03;;;;;;;13.73;3.03;;;7.50;1.00;;;;;;5076762;28;20652;-77
2022/04/09 08:37:29;;;;;;;6.10;1.40;;;7.60;1.00;;;;;;5094355;28;20173;-77
2022/04/09 08:39:55;;;;;;;4.47;1.67;;;7.60;99.90;;;;;;5076551;28;20217;-78
2022/04/09 08:42:24;;;;;;;4.40;1.00;;;7.50;1.00;;;;;;5094321;28;20197;-77
2022/04/09 08:44:49;;;;;;;9.40;2.70;;;7.40;1.00;;;;;;5094789;28;20178;-77
2022/04/09 08:47:15;;;;;;;4.60;1.83;;;7.50;99.90;;;;;;5094914;28;20200;-77
2022/04/09 08:49:46;;;;;;;7.43;1.40;;;7.50;99.90;;;;;;5094092;28;20177;-77
2022/04/09 08:52:12;;;;;;;4.33;1.80;;;7.50;1.00;;;;;;5076308;28;20221;-77
2022/04/09 08:54:37;;;;;;;2.80;1.30;;;7.50;99.90;;;;;;5094730;28;20176;-77
2022/04/09 08:57:04;;;;;;;7.03;1.97;;;7.70;99.90;;;;;;5094587;28;20178;-77
2022/04/09 08:59:30;;;;;;;7.90;2.87;;;7.70;99.90;;;;;;5094557;28;20677;-77
2022/04/09 09:01:55;;;;;;;7.27;2.73;;;7.80;99.90;;;;;;5076275;28;20198;-78
2022/04/09 09:04:21;;;;;;;7.07;2.13;;;7.90;99.90;;;;;;5095068;28;20652;-77
2022/04/09 09:06:47;;;;;;;5.77;1.80;;;8.00;99.90;;;;;;5094482;28;20176;-77
2022/04/09 09:09:32;;;;;;;3.10;1.50;;;8.20;99.90;;;;;;5094842;28;20180;-77
2022/04/09 09:12:03;;;;;;;5.70;1.63;;;8.00;99.90;;;;;;5094577;28;20189;-77
2022/04/09 09:14:33;;;;;;;3.93;1.57;;;7.90;99.90;;;;;;5095154;28;20169;-77
2022/04/09 09:17:00;;;;;;;9.97;1.60;;;7.90;1.00;;;;;;5093979;28;20217;-78
2022/04/09 09:19:45;;;;;;;5.90;1.40;;;8.00;99.90;;;;;;5095408;28;20202;-77
2022/04/09 09:22:11;;;;;;;7.37;1.97;;;8.00;99.90;;;;;;5094561;28;20189;-78
2022/04/09 09:24:37;;;;;;;3.53;1.60;;;8.00;99.90;;;;;;5077027;28;20192;-78
2022/04/09 09:27:05;;;;;;;7.83;1.70;;;8.10;1.00;;;;;;5095811;28;20182;-79
2022/04/09 09:29:32;;;;;;;5.17;1.77;;;8.10;99.90;;;;;;5095180;28;20633;-77
2022/04/09 09:32:00;;;;;;;4.03;1.60;;;8.00;1.00;;;;;;5097388;28;20705;-78
2022/04/09 09:34:26;;;;;;;2.90;1.10;;;7.50;99.90;;;;;;5097965;28;20178;-78
2022/04/09 09:36:52;;;;;;;3.73;1.10;;;7.40;99.90;;;;;;5080173;28;20672;-78
2022/04/09 09:39:20;;;;;;;3.33;1.00;;;7.10;1.00;;;;;;5096594;28;20210;-78
2022/04/09 09:41:55;;;;;;;7.63;1.50;;;7.10;1.00;;;;;;5096635;28;20614;-77
2022/04/09 09:44:22;;;;;;;3.40;1.50;;;7.10;1.00;;;;;;5098239;28;20174;-77
2022/04/09 09:46:50;;;;;;;5.13;1.57;;;7.30;99.90;;;;;;5093634;28;20726;-77
2022/04/09 09:49:17;;;;;;;7.20;2.33;;;7.60;1.00;;;;;;5075780;28;20219;-77
2022/04/09 09:51:42;;;;;;;4.43;1.50;;;7.80;99.90;;;;;;5092538;28;20224;-77
2022/04/09 09:54:13;;;;;;;5.43;1.70;;;7.90;19.40;;;;;;5093326;28;20625;-77
2022/04/09 09:56:42;;;;;;;4.47;1.70;;;8.00;99.90;;;;;;5093265;28;20173;-78
2022/04/09 09:59:10;;;;;;;6.87;1.40;;;8.10;15.10;;;;;;5076135;28;20315;-78
2022/04/09 10:01:41;;;;;;;3.47;1.60;;;8.20;99.90;;;;;;5075988;28;20206;-78
2022/04/09 10:04:08;;;;;;;3.00;1.70;;;8.10;1.00;;;;;;5076349;28;20176;-78
2022/04/09 10:06:35;;;;;;;5.13;1.70;;;8.10;99.90;;;;;;5094384;28;20668;-78
2022/04/09 10:09:06;;;;;;;5.33;1.67;;;8.10;99.90;;;;;;5094313;28;20557;-77
2022/04/09 10:11:57;;;;;;;5.97;2.07;;;8.20;99.90;;;;;;5094211;28;20207;-77
2022/04/09 10:14:23;;;;;;;5.20;1.83;;;8.30;69.00;;;;;;5094948;28;20205;-78
2022/04/09 10:16:53;;;;;;;8.87;2.30;;;8.30;1.00;;;;;;5080519;28;20183;-78
2022/04/09 10:19:22;;;;;;;11.50;2.70;;;8.50;1.00;;;;;;5080261;28;20353;-78
2022/04/09 10:21:51;;;;;;;6.90;2.37;;;8.60;1.00;;;;;;5098030;28;20194;-78
2022/04/09 10:24:19;;;;;;;6.37;2.90;;;8.60;1.00;;;;;;5080627;28;20546;-79
2022/04/09 10:26:46;;;;;;;7.53;2.40;;;8.70;1.00;;;;;;5077974;28;20193;-77
2022/04/09 10:29:11;;;;;;;5.93;2.00;;;8.50;1.00;;;;;;5079727;28;20213;-78
2022/04/09 10:31:39;;;;;;;4.70;1.40;;;7.90;1.00;;;;;;5079432;28;20255;-78
2022/04/09 10:34:07;;;;;;;8.70;1.73;;;7.50;99.90;;;;;;5078833;28;20186;-78
2022/04/09 10:36:45;;;;;;;3.27;1.17;;;7.20;1.00;;;;;;5079335;28;20186;-78
2022/04/09 10:39:39;;;;;;;2.97;1.70;;;7.00;99.90;;;;;;5080000;28;20629;-78
2022/04/09 10:42:05;;;;;;;6.17;2.30;;;7.00;30.90;;;;;;5079170;28;20237;-78
2022/04/09 10:44:43;;;;;;;7.10;2.40;;;6.90;99.90;;;;;;5079423;28;20190;-78
2022/04/09 10:47:11;;;;;;;7.07;2.17;;;6.90;1.00;;;;;;5098197;28;20181;-78
2022/04/09 10:49:37;;;;;;;5.47;2.10;;;7.00;1.00;;;;;;5097833;28;20174;-78
2022/04/09 10:52:08;;;;;;;6.07;2.10;;;7.10;1.00;;;;;;5096230;28;20218;-78
2022/04/09 10:54:34;;;;;;;5.10;1.90;;;7.40;99.90;;;;;;5079280;28;20184;-78
2022/04/09 10:57:07;;;;;;;9.10;4.23;;;7.60;1.00;;;;;;5097568;28;20249;-78
2022/04/09 10:59:34;;;;;;;8.43;3.27;;;7.80;99.90;;;;;;5097200;28;20612;-78
2022/04/09 11:02:00;;;;;;;6.57;2.20;;;7.80;99.90;;;;;;5080149;28;20205;-78
2022/04/09 11:07:11;;;;;;;10.13;2.13;;;8.20;1.00;;;;;;5098389;28;20174;-78
2022/04/09 11:09:57;;;;;;;5.87;1.70;;;8.40;99.90;;;;;;5080002;28;20240;-78
2022/04/09 11:12:27;;;;;;;6.10;2.00;;;8.70;1.00;;;;;;5098153;28;20205;-79
2022/04/09 11:15:01;;;;;;;5.27;1.83;;;8.70;1.00;;;;;;5079532;28;20661;-78
2022/04/09 11:17:43;;;;;;;7.13;1.33;;;8.90;57.00;;;;;;5079529;28;20718;-78
2022/04/09 11:20:11;;;;;;;4.47;1.30;;;9.10;1.00;;;;;;5081078;28;20580;-79
2022/04/09 11:22:39;;;;;;;3.33;1.10;;;9.30;99.90;;;;;;5083217;28;20201;-78
2022/04/09 11:25:06;;;;;;;6.20;1.30;;;9.40;1.00;;;;;;5084014;28;20179;-78
2022/04/09 11:27:32;;;;;;;2.67;1.00;;;9.50;1.00;;;;;;5098434;28;20178;-77
2022/04/09 11:29:58;;;;;;;2.27;0.90;;;9.50;1.00;;;;;;5080695;28;20227;-79
2022/04/09 11:32:25;;;;;;;7.53;1.20;;;9.50;1.00;;;;;;5100233;28;20196;-79
2022/04/09 11:34:56;;;;;;;6.80;1.50;;;9.60;99.90;;;;;;5100046;28;20188;-79
2022/04/09 11:37:29;;;;;;;5.23;1.43;;;9.50;1.00;;;;;;5081441;28;20661;-79
2022/04/09 11:39:55;;;;;;;5.03;1.30;;;9.50;99.90;;;;;;5100466;28;20194;-79
2022/04/09 11:42:21;;;;;;;6.03;1.00;;;9.50;99.90;;;;;;5099990;28;20699;-79
2022/04/09 11:44:47;;;;;;;6.83;1.40;;;9.60;99.90;;;;;;5082750;28;20239;-78
2022/04/09 11:47:17;;;;;;;4.67;1.00;;;9.60;99.90;;;;;;5101973;28;20181;-79
2022/04/09 11:49:44;;;;;;;3.37;0.97;;;9.60;99.90;;;;;;5101051;28;20170;-79
2022/04/09 11:52:11;;;;;;;3.60;0.97;;;9.70;99.90;;;;;;5116515;22;20229;-77
2022/04/09 11:54:38;;;;;;;2.67;1.20;;;9.80;99.90;;;;;;5097832;28;20170;-76
2022/04/09 11:57:10;;;;;;;5.33;1.20;;;9.90;99.90;;;;;;5097345;28;20205;-76
2022/04/09 11:59:36;;;;;;;5.37;1.40;;;10.10;99.90;;;;;;5078960;28;20210;-76
2022/04/09 12:02:01;;;;;;;8.87;1.60;;;10.10;99.90;;;;;;5096969;28;20194;-77
2022/04/09 12:04:34;;;;;;;2.33;0.97;;;9.90;99.90;;;;;;5099213;28;20184;-78
2022/04/09 12:07:02;;;;;;;4.30;1.57;;;9.90;99.90;;;;;;5100613;28;20174;-77
2022/04/09 12:09:29;;;;;;;3.13;1.00;;;9.80;99.90;;;;;;5098183;28;20182;-77
2022/04/09 12:11:55;;;;;;;4.47;1.47;;;9.70;1.00;;;;;;5097101;28;20205;-76
2022/04/09 12:14:20;;;;;;;5.00;1.30;;;9.30;1.00;;;;;;5096781;28;20184;-77
2022/04/09 12:16:47;;;;;;;2.40;1.20;;;9.20;1.00;;;;;;5096801;28;20182;-77
2022/04/09 12:19:13;;;;;;;1.60;0.77;;;9.10;1.00;;;;;;5098705;28;20649;-77
2022/04/09 12:21:39;;;;;;;2.80;1.20;;;8.90;99.90;;;;;;5096813;28;20202;-77
2022/04/09 12:24:10;;;;;;;3.13;0.80;;;9.40;1.00;;;;;;5095615;28;20178;-77
2022/04/09 12:26:40;;;;;;;1.93;1.00;;;8.10;1.00;;;;;;5094685;28;20616;-78
2022/04/09 12:29:23;;;;;;;2.23;0.70;;;8.10;99.90;;;;;;5096030;28;20245;-76
2022/04/09 12:31:51;;;;;;;3.10;1.30;;;7.90;1.00;;;;;;5095126;28;20197;-76
2022/04/09 12:34:17;;;;;;;4.60;1.47;;;7.90;47.80;;;;;;5095625;28;20170;-77
2022/04/09 12:37:02;;;;;;;3.87;1.43;;;8.10;99.90;;;;;;5094869;28;20220;-77
2022/04/09 12:39:28;;;;;;;5.03;1.60;;;8.50;1.00;;;;;;5095667;28;20545;-76
2022/04/09 12:41:54;;;;;;;3.10;1.13;;;8.70;1.00;;;;;;5094416;28;20197;-77
2022/04/09 12:44:34;;;;;;;2.67;1.07;;;8.90;1.00;;;;;;5094631;28;20210;-78
2022/04/09 12:47:00;;;;;;;4.47;1.10;;;9.20;1.00;;;;;;5094837;28;20166;-77
2022/04/09 12:49:36;;;;;;;4.37;1.00;;;9.50;1.00;;;;;;5096527;28;20182;-76
2022/04/09 12:52:04;;;;;;;4.77;1.30;;;9.80;99.90;;;;;;5104928;28;20216;-78
2022/04/09 12:54:31;;;;;;;9.03;2.17;;;9.90;99.90;;;;;;5098733;28;20724;-77